sensor_id;sensor_type;location;lat;lon;timestamp;P1;durP1;ratioP1;P2;durP2;ratioP2
68989;SDS011;56046;47.270;11.368;2024-01-16T00:02:20;4.80;;;2.10;;
68989;SDS011;56046;47.270;11.368;2024-01-16T00:04:46;4.80;;;1.87;;
68989;SDS011;56046;47.270;11.368;2024-01-16T00:07:11;3.63;;;1.53;;
68989;SDS011;56046;47.270;11.368;2024-01-16T00:09:36;4.80;;;1.93;;
68989;SDS011;56046;47.270;11.368;2024-01-16T00:12:02;7.20;;;1.90;;
68989;SDS011;56046;47.270;11.368;2024-01-16T00:14:28;4.22;;;1.60;;
68989;SDS011;56046;47.270;11.368;2024-01-16T00:16:54;4.77;;;1.80;;
68989;SDS011;56046;47.270;11.368;2024-01-16T00:19:19;4.77;;;1.97;;
68989;SDS011;56046;47.270;11.368;2024-01-16T00:21:44;4.40;;;1.83;;
68989;SDS011;56046;47.270;11.368;2024-01-16T00:24:15;4.47;;;1.55;;
68989;SDS011;56046;47.270;11.368;2024-01-16T00:26:41;6.72;;;2.13;;
68989;SDS011;56046;47.270;11.368;2024-01-16T00:29:06;4.43;;;1.67;;
68989;SDS011;56046;47.270;11.368;2024-01-16T00:31:32;5.80;;;2.07;;
68989;SDS011;56046;47.270;11.368;2024-01-16T00:33:57;4.83;;;2.00;;
68989;SDS011;56046;47.270;11.368;2024-01-16T00:36:22;5.27;;;2.67;;
68989;SDS011;56046;47.270;11.368;2024-01-16T00:38:47;6.10;;;2.30;;
68989;SDS011;56046;47.270;11.368;2024-01-16T00:41:13;6.07;;;2.57;;
68989;SDS011;56046;47.270;11.368;2024-01-16T00:43:42;6.32;;;2.47;;
68989;SDS011;56046;47.270;11.368;2024-01-16T00:46:07;5.10;;;2.42;;
68989;SDS011;56046;47.270;11.368;2024-01-16T00:48:33;5.57;;;1.97;;
68989;SDS011;56046;47.270;11.368;2024-01-16T00:50:58;5.80;;;2.40;;
68989;SDS011;56046;47.270;11.368;2024-01-16T00:53:23;5.60;;;2.10;;
68989;SDS011;56046;47.270;11.368;2024-01-16T00:55:48;7.47;;;2.03;;
68989;SDS011;56046;47.270;11.368;2024-01-16T00:58:13;5.77;;;2.30;;
68989;SDS011;56046;47.270;11.368;2024-01-16T01:00:39;5.40;;;2.07;;
68989;SDS011;56046;47.270;11.368;2024-01-16T01:03:04;5.53;;;2.40;;
68989;SDS011;56046;47.270;11.368;2024-01-16T01:05:30;6.03;;;2.00;;
68989;SDS011;56046;47.270;11.368;2024-01-16T01:07:55;4.45;;;2.40;;
68989;SDS011;56046;47.270;11.368;2024-01-16T01:10:20;5.82;;;2.15;;
68989;SDS011;56046;47.270;11.368;2024-01-16T01:12:45;4.93;;;2.10;;
68989;SDS011;56046;47.270;11.368;2024-01-16T01:15:11;5.13;;;2.03;;
68989;SDS011;56046;47.270;11.368;2024-01-16T01:17:37;4.20;;;1.90;;
68989;SDS011;56046;47.270;11.368;2024-01-16T01:20:02;4.47;;;1.90;;
68989;SDS011;56046;47.270;11.368;2024-01-16T01:22:27;5.70;;;2.10;;
68989;SDS011;56046;47.270;11.368;2024-01-16T01:24:53;4.55;;;1.77;;
68989;SDS011;56046;47.270;11.368;2024-01-16T01:27:18;4.80;;;2.00;;
68989;SDS011;56046;47.270;11.368;2024-01-16T01:29:43;3.40;;;1.40;;
68989;SDS011;56046;47.270;11.368;2024-01-16T01:32:08;3.80;;;1.60;;
68989;SDS011;56046;47.270;11.368;2024-01-16T01:34:33;4.13;;;1.53;;
68989;SDS011;56046;47.270;11.368;2024-01-16T01:36:59;5.20;;;1.73;;
68989;SDS011;56046;47.270;11.368;2024-01-16T01:39:24;3.57;;;1.67;;
68989;SDS011;56046;47.270;11.368;2024-01-16T01:41:50;4.40;;;1.60;;
68989;SDS011;56046;47.270;11.368;2024-01-16T01:44:15;4.37;;;1.70;;
68989;SDS011;56046;47.270;11.368;2024-01-16T01:46:41;4.85;;;2.03;;
68989;SDS011;56046;47.270;11.368;2024-01-16T01:49:06;5.90;;;1.90;;
68989;SDS011;56046;47.270;11.368;2024-01-16T01:51:32;4.87;;;1.70;;
68989;SDS011;56046;47.270;11.368;2024-01-16T01:53:58;4.95;;;1.90;;
68989;SDS011;56046;47.270;11.368;2024-01-16T01:56:24;4.55;;;1.80;;
68989;SDS011;56046;47.270;11.368;2024-01-16T01:58:51;3.97;;;2.13;;
68989;SDS011;56046;47.270;11.368;2024-01-16T02:01:18;4.70;;;2.00;;
68989;SDS011;56046;47.270;11.368;2024-01-16T02:03:45;4.13;;;1.88;;
68989;SDS011;56046;47.270;11.368;2024-01-16T02:06:11;5.97;;;2.10;;
68989;SDS011;56046;47.270;11.368;2024-01-16T02:08:37;4.32;;;1.63;;
68989;SDS011;56046;47.270;11.368;2024-01-16T02:11:02;3.60;;;1.37;;
68989;SDS011;56046;47.270;11.368;2024-01-16T02:13:27;4.17;;;1.70;;
68989;SDS011;56046;47.270;11.368;2024-01-16T02:15:53;4.80;;;2.00;;
68989;SDS011;56046;47.270;11.368;2024-01-16T02:18:18;4.17;;;1.57;;
68989;SDS011;56046;47.270;11.368;2024-01-16T02:20:44;4.67;;;1.70;;
68989;SDS011;56046;47.270;11.368;2024-01-16T02:23:09;5.20;;;1.80;;
68989;SDS011;56046;47.270;11.368;2024-01-16T02:25:35;3.80;;;1.75;;
68989;SDS011;56046;47.270;11.368;2024-01-16T02:28:00;4.05;;;1.77;;
68989;SDS011;56046;47.270;11.368;2024-01-16T02:30:26;3.47;;;1.43;;
68989;SDS011;56046;47.270;11.368;2024-01-16T02:32:51;4.07;;;1.73;;
68989;SDS011;56046;47.270;11.368;2024-01-16T02:35:16;4.63;;;1.90;;
68989;SDS011;56046;47.270;11.368;2024-01-16T02:37:43;4.25;;;1.75;;
68989;SDS011;56046;47.270;11.368;2024-01-16T02:40:09;5.83;;;2.13;;
68989;SDS011;56046;47.270;11.368;2024-01-16T02:42:34;3.92;;;1.70;;
68989;SDS011;56046;47.270;11.368;2024-01-16T02:45:01;3.70;;;1.40;;
68989;SDS011;56046;47.270;11.368;2024-01-16T02:47:26;5.75;;;2.13;;
68989;SDS011;56046;47.270;11.368;2024-01-16T02:49:52;4.77;;;1.70;;
68989;SDS011;56046;47.270;11.368;2024-01-16T02:52:17;3.73;;;1.70;;
68989;SDS011;56046;47.270;11.368;2024-01-16T02:54:43;4.35;;;1.60;;
68989;SDS011;56046;47.270;11.368;2024-01-16T02:57:09;5.23;;;1.80;;
68989;SDS011;56046;47.270;11.368;2024-01-16T02:59:35;5.68;;;1.77;;
68989;SDS011;56046;47.270;11.368;2024-01-16T03:02:00;6.10;;;1.80;;
68989;SDS011;56046;47.270;11.368;2024-01-16T03:04:25;4.27;;;1.80;;
68989;SDS011;56046;47.270;11.368;2024-01-16T03:06:50;4.77;;;1.80;;
68989;SDS011;56046;47.270;11.368;2024-01-16T03:09:16;4.73;;;1.80;;
68989;SDS011;56046;47.270;11.368;2024-01-16T03:11:41;5.00;;;1.53;;
68989;SDS011;56046;47.270;11.368;2024-01-16T03:14:06;4.53;;;1.77;;
68989;SDS011;56046;47.270;11.368;2024-01-16T03:16:32;7.00;;;2.17;;
68989;SDS011;56046;47.270;11.368;2024-01-16T03:18:57;4.00;;;1.73;;
68989;SDS011;56046;47.270;11.368;2024-01-16T03:21:22;5.50;;;1.80;;
68989;SDS011;56046;47.270;11.368;2024-01-16T03:23:48;4.03;;;1.80;;
68989;SDS011;56046;47.270;11.368;2024-01-16T03:26:13;4.23;;;1.60;;
68989;SDS011;56046;47.270;11.368;2024-01-16T03:28:39;4.93;;;1.90;;
68989;SDS011;56046;47.270;11.368;2024-01-16T03:31:04;4.35;;;1.80;;
68989;SDS011;56046;47.270;11.368;2024-01-16T03:33:30;6.37;;;2.27;;
68989;SDS011;56046;47.270;11.368;2024-01-16T03:35:55;5.07;;;2.40;;
68989;SDS011;56046;47.270;11.368;2024-01-16T03:38:20;5.90;;;2.40;;
68989;SDS011;56046;47.270;11.368;2024-01-16T03:40:45;4.77;;;1.87;;
68989;SDS011;56046;47.270;11.368;2024-01-16T03:43:11;6.23;;;2.37;;
68989;SDS011;56046;47.270;11.368;2024-01-16T03:45:36;5.43;;;2.03;;
68989;SDS011;56046;47.270;11.368;2024-01-16T03:48:02;4.70;;;2.07;;
68989;SDS011;56046;47.270;11.368;2024-01-16T03:50:28;4.32;;;1.83;;
68989;SDS011;56046;47.270;11.368;2024-01-16T03:52:53;5.20;;;2.10;;
68989;SDS011;56046;47.270;11.368;2024-01-16T03:55:18;6.07;;;2.10;;
68989;SDS011;56046;47.270;11.368;2024-01-16T03:57:44;5.73;;;2.40;;
68989;SDS011;56046;47.270;11.368;2024-01-16T04:00:11;5.37;;;2.47;;
68989;SDS011;56046;47.270;11.368;2024-01-16T04:02:37;5.45;;;2.53;;
68989;SDS011;56046;47.270;11.368;2024-01-16T04:05:03;5.13;;;2.40;;
68989;SDS011;56046;47.270;11.368;2024-01-16T04:07:28;6.13;;;3.08;;
68989;SDS011;56046;47.270;11.368;2024-01-16T04:09:54;10.77;;;3.10;;
68989;SDS011;56046;47.270;11.368;2024-01-16T04:12:19;5.37;;;2.40;;
68989;SDS011;56046;47.270;11.368;2024-01-16T04:14:44;6.27;;;2.57;;
68989;SDS011;56046;47.270;11.368;2024-01-16T04:17:09;6.50;;;2.83;;
68989;SDS011;56046;47.270;11.368;2024-01-16T04:19:34;6.53;;;2.93;;
68989;SDS011;56046;47.270;11.368;2024-01-16T04:22:01;6.10;;;3.33;;
68989;SDS011;56046;47.270;11.368;2024-01-16T04:24:27;8.05;;;2.85;;
68989;SDS011;56046;47.270;11.368;2024-01-16T04:26:52;7.73;;;3.13;;
68989;SDS011;56046;47.270;11.368;2024-01-16T04:29:17;6.27;;;2.80;;
68989;SDS011;56046;47.270;11.368;2024-01-16T04:31:42;7.03;;;2.80;;
68989;SDS011;56046;47.270;11.368;2024-01-16T04:34:08;6.32;;;2.80;;
68989;SDS011;56046;47.270;11.368;2024-01-16T04:36:33;7.30;;;2.88;;
68989;SDS011;56046;47.270;11.368;2024-01-16T04:38:58;7.97;;;2.93;;
68989;SDS011;56046;47.270;11.368;2024-01-16T04:41:24;5.97;;;2.87;;
68989;SDS011;56046;47.270;11.368;2024-01-16T04:43:49;10.37;;;5.40;;
68989;SDS011;56046;47.270;11.368;2024-01-16T04:46:15;11.87;;;6.27;;
68989;SDS011;56046;47.270;11.368;2024-01-16T04:48:40;17.90;;;7.25;;
68989;SDS011;56046;47.270;11.368;2024-01-16T04:51:06;8.03;;;3.57;;
68989;SDS011;56046;47.270;11.368;2024-01-16T04:53:32;8.82;;;3.45;;
68989;SDS011;56046;47.270;11.368;2024-01-16T04:55:58;8.97;;;3.63;;
68989;SDS011;56046;47.270;11.368;2024-01-16T04:58:23;6.07;;;2.77;;
68989;SDS011;56046;47.270;11.368;2024-01-16T05:00:48;5.80;;;2.70;;
68989;SDS011;56046;47.270;11.368;2024-01-16T05:03:13;7.13;;;3.10;;
68989;SDS011;56046;47.270;11.368;2024-01-16T05:05:39;6.17;;;2.73;;
68989;SDS011;56046;47.270;11.368;2024-01-16T05:08:04;6.60;;;2.93;;
68989;SDS011;56046;47.270;11.368;2024-01-16T05:10:29;6.67;;;2.87;;
68989;SDS011;56046;47.270;11.368;2024-01-16T05:12:56;6.32;;;2.80;;
68989;SDS011;56046;47.270;11.368;2024-01-16T05:15:21;7.80;;;2.80;;
68989;SDS011;56046;47.270;11.368;2024-01-16T05:17:46;6.23;;;2.63;;
68989;SDS011;56046;47.270;11.368;2024-01-16T05:20:11;5.87;;;2.50;;
68989;SDS011;56046;47.270;11.368;2024-01-16T05:22:37;5.20;;;2.47;;
68989;SDS011;56046;47.270;11.368;2024-01-16T05:25:04;8.02;;;2.50;;
68989;SDS011;56046;47.270;11.368;2024-01-16T05:27:29;6.80;;;2.60;;
68989;SDS011;56046;47.270;11.368;2024-01-16T05:29:54;6.27;;;2.40;;
68989;SDS011;56046;47.270;11.368;2024-01-16T05:32:20;7.22;;;2.65;;
68989;SDS011;56046;47.270;11.368;2024-01-16T05:34:45;11.80;;;3.70;;
68989;SDS011;56046;47.270;11.368;2024-01-16T05:37:10;31.20;;;10.43;;
68989;SDS011;56046;47.270;11.368;2024-01-16T05:39:36;12.33;;;4.13;;
68989;SDS011;56046;47.270;11.368;2024-01-16T05:42:01;7.47;;;2.77;;
68989;SDS011;56046;47.270;11.368;2024-01-16T05:44:27;8.90;;;3.40;;
68989;SDS011;56046;47.270;11.368;2024-01-16T05:46:52;8.23;;;3.17;;
68989;SDS011;56046;47.270;11.368;2024-01-16T05:49:18;7.87;;;3.40;;
68989;SDS011;56046;47.270;11.368;2024-01-16T05:51:43;9.13;;;3.50;;
68989;SDS011;56046;47.270;11.368;2024-01-16T05:54:08;7.13;;;3.70;;
68989;SDS011;56046;47.270;11.368;2024-01-16T05:56:34;8.30;;;3.60;;
68989;SDS011;56046;47.270;11.368;2024-01-16T05:58:59;6.17;;;2.50;;
68989;SDS011;56046;47.270;11.368;2024-01-16T06:01:24;7.30;;;2.57;;
68989;SDS011;56046;47.270;11.368;2024-01-16T06:03:50;7.60;;;2.97;;
68989;SDS011;56046;47.270;11.368;2024-01-16T06:06:15;6.32;;;2.75;;
68989;SDS011;56046;47.270;11.368;2024-01-16T06:08:41;7.82;;;2.92;;
68989;SDS011;56046;47.270;11.368;2024-01-16T06:11:07;5.93;;;2.35;;
68989;SDS011;56046;47.270;11.368;2024-01-16T06:13:32;6.63;;;2.60;;
68989;SDS011;56046;47.270;11.368;2024-01-16T06:15:58;7.60;;;2.73;;
68989;SDS011;56046;47.270;11.368;2024-01-16T06:18:23;6.07;;;2.50;;
68989;SDS011;56046;47.270;11.368;2024-01-16T06:20:48;9.10;;;3.30;;
68989;SDS011;56046;47.270;11.368;2024-01-16T06:23:13;5.93;;;2.23;;
68989;SDS011;56046;47.270;11.368;2024-01-16T06:25:39;5.33;;;2.43;;
68989;SDS011;56046;47.270;11.368;2024-01-16T06:28:04;6.20;;;2.70;;
68989;SDS011;56046;47.270;11.368;2024-01-16T06:30:30;6.38;;;2.55;;
68989;SDS011;56046;47.270;11.368;2024-01-16T06:32:56;5.77;;;2.47;;
68989;SDS011;56046;47.270;11.368;2024-01-16T06:35:21;5.95;;;2.33;;
68989;SDS011;56046;47.270;11.368;2024-01-16T06:37:48;9.73;;;2.93;;
68989;SDS011;56046;47.270;11.368;2024-01-16T06:40:13;7.20;;;2.63;;
68989;SDS011;56046;47.270;11.368;2024-01-16T06:42:39;8.77;;;2.92;;
68989;SDS011;56046;47.270;11.368;2024-01-16T06:45:04;7.53;;;3.10;;
68989;SDS011;56046;47.270;11.368;2024-01-16T06:47:30;6.50;;;2.40;;
68989;SDS011;56046;47.270;11.368;2024-01-16T06:49:55;5.35;;;2.25;;
68989;SDS011;56046;47.270;11.368;2024-01-16T06:52:21;5.55;;;2.38;;
68989;SDS011;56046;47.270;11.368;2024-01-16T06:54:46;6.50;;;2.20;;
68989;SDS011;56046;47.270;11.368;2024-01-16T06:57:12;6.30;;;2.63;;
68989;SDS011;56046;47.270;11.368;2024-01-16T06:59:37;9.23;;;2.80;;
68989;SDS011;56046;47.270;11.368;2024-01-16T07:02:02;6.73;;;2.73;;
68989;SDS011;56046;47.270;11.368;2024-01-16T07:04:28;10.48;;;3.05;;
68989;SDS011;56046;47.270;11.368;2024-01-16T07:06:53;6.80;;;2.70;;
68989;SDS011;56046;47.270;11.368;2024-01-16T07:09:19;6.80;;;3.13;;
68989;SDS011;56046;47.270;11.368;2024-01-16T07:11:46;10.88;;;3.88;;
68989;SDS011;56046;47.270;11.368;2024-01-16T07:14:11;7.63;;;3.33;;
68989;SDS011;56046;47.270;11.368;2024-01-16T07:16:37;8.60;;;3.37;;
68989;SDS011;56046;47.270;11.368;2024-01-16T07:19:02;9.40;;;4.07;;
68989;SDS011;56046;47.270;11.368;2024-01-16T07:21:27;9.53;;;3.80;;
68989;SDS011;56046;47.270;11.368;2024-01-16T07:23:53;9.32;;;4.38;;
68989;SDS011;56046;47.270;11.368;2024-01-16T07:26:18;10.53;;;4.17;;
68989;SDS011;56046;47.270;11.368;2024-01-16T07:28:43;7.73;;;3.70;;
68989;SDS011;56046;47.270;11.368;2024-01-16T07:31:09;8.87;;;4.27;;
68989;SDS011;56046;47.270;11.368;2024-01-16T07:33:34;9.97;;;3.50;;
68989;SDS011;56046;47.270;11.368;2024-01-16T07:36:00;13.45;;;4.93;;
68989;SDS011;56046;47.270;11.368;2024-01-16T07:38:25;11.23;;;4.80;;
68989;SDS011;56046;47.270;11.368;2024-01-16T07:40:50;24.83;;;9.00;;
68989;SDS011;56046;47.270;11.368;2024-01-16T07:43:16;18.33;;;7.43;;
68989;SDS011;56046;47.270;11.368;2024-01-16T07:45:41;10.43;;;3.80;;
68989;SDS011;56046;47.270;11.368;2024-01-16T07:48:06;9.67;;;4.10;;
68989;SDS011;56046;47.270;11.368;2024-01-16T07:50:32;9.27;;;3.37;;
68989;SDS011;56046;47.270;11.368;2024-01-16T07:52:57;8.97;;;3.20;;
68989;SDS011;56046;47.270;11.368;2024-01-16T07:55:22;8.23;;;4.00;;
68989;SDS011;56046;47.270;11.368;2024-01-16T07:57:47;11.47;;;3.60;;
68989;SDS011;56046;47.270;11.368;2024-01-16T08:00:13;8.17;;;3.70;;
68989;SDS011;56046;47.270;11.368;2024-01-16T08:02:38;6.13;;;2.72;;
68989;SDS011;56046;47.270;11.368;2024-01-16T08:05:04;8.10;;;3.27;;
68989;SDS011;56046;47.270;11.368;2024-01-16T08:07:30;7.00;;;3.03;;
68989;SDS011;56046;47.270;11.368;2024-01-16T08:09:55;7.45;;;3.80;;
68989;SDS011;56046;47.270;11.368;2024-01-16T08:12:21;9.45;;;3.50;;
68989;SDS011;56046;47.270;11.368;2024-01-16T08:14:46;8.97;;;3.20;;
68989;SDS011;56046;47.270;11.368;2024-01-16T08:17:11;7.17;;;2.67;;
68989;SDS011;56046;47.270;11.368;2024-01-16T08:19:37;8.53;;;3.50;;
68989;SDS011;56046;47.270;11.368;2024-01-16T08:22:02;8.17;;;2.83;;
68989;SDS011;56046;47.270;11.368;2024-01-16T08:24:27;7.43;;;3.40;;
68989;SDS011;56046;47.270;11.368;2024-01-16T08:26:53;7.43;;;3.20;;
68989;SDS011;56046;47.270;11.368;2024-01-16T08:29:18;6.33;;;2.80;;
68989;SDS011;56046;47.270;11.368;2024-01-16T08:31:43;8.27;;;3.60;;
68989;SDS011;56046;47.270;11.368;2024-01-16T08:34:08;9.13;;;3.30;;
68989;SDS011;56046;47.270;11.368;2024-01-16T08:36:34;8.93;;;3.40;;
68989;SDS011;56046;47.270;11.368;2024-01-16T08:38:59;7.57;;;2.87;;
68989;SDS011;56046;47.270;11.368;2024-01-16T08:41:24;7.53;;;3.00;;
68989;SDS011;56046;47.270;11.368;2024-01-16T08:43:49;5.87;;;2.70;;
68989;SDS011;56046;47.270;11.368;2024-01-16T08:46:16;7.22;;;2.88;;
68989;SDS011;56046;47.270;11.368;2024-01-16T08:48:41;6.70;;;2.73;;
68989;SDS011;56046;47.270;11.368;2024-01-16T08:51:07;9.80;;;3.40;;
68989;SDS011;56046;47.270;11.368;2024-01-16T08:53:32;6.13;;;2.92;;
68989;SDS011;56046;47.270;11.368;2024-01-16T08:55:59;7.17;;;2.53;;
68989;SDS011;56046;47.270;11.368;2024-01-16T08:58:24;6.37;;;2.43;;
68989;SDS011;56046;47.270;11.368;2024-01-16T09:00:50;6.83;;;2.80;;
68989;SDS011;56046;47.270;11.368;2024-01-16T09:03:15;7.10;;;2.83;;
68989;SDS011;56046;47.270;11.368;2024-01-16T09:05:41;5.55;;;2.40;;
68989;SDS011;56046;47.270;11.368;2024-01-16T09:08:08;9.23;;;2.75;;
68989;SDS011;56046;47.270;11.368;2024-01-16T09:10:33;6.17;;;2.70;;
68989;SDS011;56046;47.270;11.368;2024-01-16T09:12:58;6.53;;;2.77;;
68989;SDS011;56046;47.270;11.368;2024-01-16T09:15:24;6.32;;;2.80;;
68989;SDS011;56046;47.270;11.368;2024-01-16T09:17:49;8.20;;;2.43;;
68989;SDS011;56046;47.270;11.368;2024-01-16T09:20:15;6.80;;;2.73;;
68989;SDS011;56046;47.270;11.368;2024-01-16T09:22:40;7.07;;;2.90;;
68989;SDS011;56046;47.270;11.368;2024-01-16T09:25:05;5.53;;;2.40;;
68989;SDS011;56046;47.270;11.368;2024-01-16T09:27:31;7.43;;;2.80;;
68989;SDS011;56046;47.270;11.368;2024-01-16T09:29:56;5.60;;;2.60;;
68989;SDS011;56046;47.270;11.368;2024-01-16T09:32:21;6.60;;;2.67;;
68989;SDS011;56046;47.270;11.368;2024-01-16T09:34:46;6.27;;;2.67;;
68989;SDS011;56046;47.270;11.368;2024-01-16T09:37:12;8.50;;;3.13;;
68989;SDS011;56046;47.270;11.368;2024-01-16T09:39:39;6.18;;;2.70;;
68989;SDS011;56046;47.270;11.368;2024-01-16T09:42:05;7.73;;;2.50;;
68989;SDS011;56046;47.270;11.368;2024-01-16T09:44:30;7.67;;;2.90;;
68989;SDS011;56046;47.270;11.368;2024-01-16T09:46:55;7.40;;;2.67;;
68989;SDS011;56046;47.270;11.368;2024-01-16T09:49:22;6.65;;;2.70;;
68989;SDS011;56046;47.270;11.368;2024-01-16T09:51:48;8.05;;;2.78;;
68989;SDS011;56046;47.270;11.368;2024-01-16T09:54:13;5.90;;;2.53;;
68989;SDS011;56046;47.270;11.368;2024-01-16T09:56:42;8.00;;;2.67;;
68989;SDS011;56046;47.270;11.368;2024-01-16T09:59:08;6.32;;;2.88;;
68989;SDS011;56046;47.270;11.368;2024-01-16T10:01:34;6.20;;;2.47;;
68989;SDS011;56046;47.270;11.368;2024-01-16T10:04:00;5.83;;;2.40;;
68989;SDS011;56046;47.270;11.368;2024-01-16T10:06:29;6.43;;;2.53;;
68989;SDS011;56046;47.270;11.368;2024-01-16T10:08:56;7.78;;;2.83;;
68989;SDS011;56046;47.270;11.368;2024-01-16T10:11:21;6.83;;;2.90;;
68989;SDS011;56046;47.270;11.368;2024-01-16T10:13:47;6.73;;;2.67;;
68989;SDS011;56046;47.270;11.368;2024-01-16T10:16:12;8.50;;;3.07;;
68989;SDS011;56046;47.270;11.368;2024-01-16T10:18:37;9.93;;;2.80;;
68989;SDS011;56046;47.270;11.368;2024-01-16T10:21:03;7.33;;;2.93;;
68989;SDS011;56046;47.270;11.368;2024-01-16T10:23:32;7.82;;;2.70;;
68989;SDS011;56046;47.270;11.368;2024-01-16T10:28:30;5.75;;;2.65;;
68989;SDS011;56046;47.270;11.368;2024-01-16T10:31:04;6.23;;;2.60;;
68989;SDS011;56046;47.270;11.368;2024-01-16T10:33:30;6.60;;;2.40;;
68989;SDS011;56046;47.270;11.368;2024-01-16T10:36:08;6.17;;;2.20;;
68989;SDS011;56046;47.270;11.368;2024-01-16T10:38:37;5.55;;;2.28;;
68989;SDS011;56046;47.270;11.368;2024-01-16T10:43:31;6.45;;;2.35;;
68989;SDS011;56046;47.270;11.368;2024-01-16T10:46:06;5.17;;;2.33;;
68989;SDS011;56046;47.270;11.368;2024-01-16T10:48:31;6.00;;;2.40;;
68989;SDS011;56046;47.270;11.368;2024-01-16T10:50:57;6.88;;;1.85;;
68989;SDS011;56046;47.270;11.368;2024-01-16T10:53:22;5.75;;;1.63;;
68989;SDS011;56046;47.270;11.368;2024-01-16T10:55:51;5.20;;;1.98;;
68989;SDS011;56046;47.270;11.368;2024-01-16T10:58:16;5.57;;;1.80;;
68989;SDS011;56046;47.270;11.368;2024-01-16T11:00:44;3.67;;;1.73;;
68989;SDS011;56046;47.270;11.368;2024-01-16T11:03:15;6.63;;;2.25;;
68989;SDS011;56046;47.270;11.368;2024-01-16T11:05:42;5.72;;;2.70;;
68989;SDS011;56046;47.270;11.368;2024-01-16T11:08:08;4.93;;;2.20;;
68989;SDS011;56046;47.270;11.368;2024-01-16T11:10:33;5.60;;;2.08;;
68989;SDS011;56046;47.270;11.368;2024-01-16T11:13:01;4.82;;;1.98;;
68989;SDS011;56046;47.270;11.368;2024-01-16T11:15:28;5.10;;;1.70;;
68989;SDS011;56046;47.270;11.368;2024-01-16T11:17:56;6.57;;;2.20;;
68989;SDS011;56046;47.270;11.368;2024-01-16T11:20:22;5.28;;;2.13;;
68989;SDS011;56046;47.270;11.368;2024-01-16T11:22:48;5.88;;;2.30;;
68989;SDS011;56046;47.270;11.368;2024-01-16T11:25:14;6.40;;;2.00;;
68989;SDS011;56046;47.270;11.368;2024-01-16T11:27:41;6.20;;;2.90;;
68989;SDS011;56046;47.270;11.368;2024-01-16T11:30:07;5.88;;;2.80;;
68989;SDS011;56046;47.270;11.368;2024-01-16T11:32:39;6.05;;;3.13;;
68989;SDS011;56046;47.270;11.368;2024-01-16T11:35:09;7.60;;;2.47;;
68989;SDS011;56046;47.270;11.368;2024-01-16T11:37:35;4.10;;;2.15;;
68989;SDS011;56046;47.270;11.368;2024-01-16T11:42:41;3.77;;;1.63;;
68989;SDS011;56046;47.270;11.368;2024-01-16T11:45:08;5.18;;;1.83;;
68989;SDS011;56046;47.270;11.368;2024-01-16T11:47:33;3.92;;;1.45;;
68989;SDS011;56046;47.270;11.368;2024-01-16T11:50:11;3.87;;;1.80;;
68989;SDS011;56046;47.270;11.368;2024-01-16T11:52:44;5.53;;;1.85;;
68989;SDS011;56046;47.270;11.368;2024-01-16T11:55:24;4.77;;;2.17;;
68989;SDS011;56046;47.270;11.368;2024-01-16T12:00:45;5.43;;;2.03;;
68989;SDS011;56046;47.270;11.368;2024-01-16T12:03:11;5.03;;;2.38;;
68989;SDS011;56046;47.270;11.368;2024-01-16T12:05:37;6.00;;;2.97;;
68989;SDS011;56046;47.270;11.368;2024-01-16T12:08:03;6.00;;;2.60;;
68989;SDS011;56046;47.270;11.368;2024-01-16T12:10:28;7.07;;;2.90;;
68989;SDS011;56046;47.270;11.368;2024-01-16T12:12:57;5.10;;;2.30;;
68989;SDS011;56046;47.270;11.368;2024-01-16T12:15:22;7.13;;;2.60;;
68989;SDS011;56046;47.270;11.368;2024-01-16T12:17:54;6.37;;;2.37;;
68989;SDS011;56046;47.270;11.368;2024-01-16T12:20:20;6.45;;;2.33;;
68989;SDS011;56046;47.270;11.368;2024-01-16T12:22:51;6.18;;;2.90;;
68989;SDS011;56046;47.270;11.368;2024-01-16T12:25:19;5.43;;;2.20;;
68989;SDS011;56046;47.270;11.368;2024-01-16T12:27:44;7.17;;;2.73;;
68989;SDS011;56046;47.270;11.368;2024-01-16T12:30:10;7.53;;;2.80;;
68989;SDS011;56046;47.270;11.368;2024-01-16T12:32:35;7.00;;;2.60;;
68989;SDS011;56046;47.270;11.368;2024-01-16T12:35:00;5.63;;;2.70;;
68989;SDS011;56046;47.270;11.368;2024-01-16T12:37:26;6.20;;;2.60;;
68989;SDS011;56046;47.270;11.368;2024-01-16T12:39:51;6.83;;;2.93;;
68989;SDS011;56046;47.270;11.368;2024-01-16T12:42:17;7.65;;;2.53;;
68989;SDS011;56046;47.270;11.368;2024-01-16T12:44:42;6.60;;;2.20;;
68989;SDS011;56046;47.270;11.368;2024-01-16T12:47:08;7.90;;;2.87;;
68989;SDS011;56046;47.270;11.368;2024-01-16T12:49:39;6.40;;;2.77;;
68989;SDS011;56046;47.270;11.368;2024-01-16T12:52:14;6.78;;;2.75;;
68989;SDS011;56046;47.270;11.368;2024-01-16T12:54:39;5.95;;;2.80;;
68989;SDS011;56046;47.270;11.368;2024-01-16T12:57:04;6.80;;;2.40;;
68989;SDS011;56046;47.270;11.368;2024-01-16T12:59:31;6.63;;;2.73;;
68989;SDS011;56046;47.270;11.368;2024-01-16T13:01:56;5.72;;;2.50;;
68989;SDS011;56046;47.270;11.368;2024-01-16T13:04:21;7.87;;;2.80;;
68989;SDS011;56046;47.270;11.368;2024-01-16T13:06:46;7.53;;;3.17;;
68989;SDS011;56046;47.270;11.368;2024-01-16T13:09:13;7.43;;;2.50;;
68989;SDS011;56046;47.270;11.368;2024-01-16T13:11:59;10.45;;;3.20;;
68989;SDS011;56046;47.270;11.368;2024-01-16T13:14:25;8.98;;;2.85;;
68989;SDS011;56046;47.270;11.368;2024-01-16T13:16:51;6.60;;;2.80;;
68989;SDS011;56046;47.270;11.368;2024-01-16T13:19:19;9.10;;;2.72;;
68989;SDS011;56046;47.270;11.368;2024-01-16T13:21:44;8.13;;;2.77;;
68989;SDS011;56046;47.270;11.368;2024-01-16T13:24:10;7.93;;;3.20;;
68989;SDS011;56046;47.270;11.368;2024-01-16T13:26:35;6.03;;;2.90;;
68989;SDS011;56046;47.270;11.368;2024-01-16T13:29:02;9.07;;;3.28;;
68989;SDS011;56046;47.270;11.368;2024-01-16T13:31:27;6.80;;;2.90;;
68989;SDS011;56046;47.270;11.368;2024-01-16T13:33:52;11.27;;;3.37;;
68989;SDS011;56046;47.270;11.368;2024-01-16T13:36:17;6.63;;;3.17;;
68989;SDS011;56046;47.270;11.368;2024-01-16T13:38:43;6.73;;;3.10;;
68989;SDS011;56046;47.270;11.368;2024-01-16T13:41:09;8.95;;;3.22;;
68989;SDS011;56046;47.270;11.368;2024-01-16T13:43:34;7.30;;;3.23;;
68989;SDS011;56046;47.270;11.368;2024-01-16T13:46:00;8.98;;;3.33;;
68989;SDS011;56046;47.270;11.368;2024-01-16T13:48:25;8.00;;;3.70;;
68989;SDS011;56046;47.270;11.368;2024-01-16T13:50:50;7.17;;;2.97;;
68989;SDS011;56046;47.270;11.368;2024-01-16T13:53:16;7.70;;;3.10;;
68989;SDS011;56046;47.270;11.368;2024-01-16T13:55:41;11.77;;;3.20;;
68989;SDS011;56046;47.270;11.368;2024-01-16T13:58:07;7.77;;;3.23;;
68989;SDS011;56046;47.270;11.368;2024-01-16T14:00:32;8.87;;;3.10;;
68989;SDS011;56046;47.270;11.368;2024-01-16T14:02:57;7.60;;;3.00;;
68989;SDS011;56046;47.270;11.368;2024-01-16T14:05:23;6.60;;;2.83;;
68989;SDS011;56046;47.270;11.368;2024-01-16T14:07:49;6.23;;;2.80;;
68989;SDS011;56046;47.270;11.368;2024-01-16T14:10:21;7.55;;;3.00;;
68989;SDS011;56046;47.270;11.368;2024-01-16T14:12:48;7.88;;;3.33;;
68989;SDS011;56046;47.270;11.368;2024-01-16T14:15:14;6.57;;;3.00;;
68989;SDS011;56046;47.270;11.368;2024-01-16T14:17:48;6.75;;;3.22;;
68989;SDS011;56046;47.270;11.368;2024-01-16T14:20:13;7.03;;;2.87;;
68989;SDS011;56046;47.270;11.368;2024-01-16T14:22:39;9.48;;;2.80;;
68989;SDS011;56046;47.270;11.368;2024-01-16T14:25:05;7.57;;;2.77;;
68989;SDS011;56046;47.270;11.368;2024-01-16T14:27:37;6.53;;;2.45;;
68989;SDS011;56046;47.270;11.368;2024-01-16T14:30:02;6.93;;;2.97;;
68989;SDS011;56046;47.270;11.368;2024-01-16T14:32:27;5.90;;;2.67;;
68989;SDS011;56046;47.270;11.368;2024-01-16T14:34:52;6.03;;;2.60;;
68989;SDS011;56046;47.270;11.368;2024-01-16T14:37:18;8.50;;;2.73;;